createdAt,value
2018-02-14T00:00:48.814Z,-3.26
2018-02-14T00:03:16.446Z,-3.28
2018-02-14T00:05:44.036Z,-3.39
2018-02-14T00:08:11.663Z,-3.38
2018-02-14T00:10:39.882Z,-3.39
2018-02-14T00:13:08.466Z,-3.42
2018-02-14T00:15:36.057Z,-3.37
2018-02-14T00:18:03.645Z,-3.42
2018-02-14T00:20:31.228Z,-3.46
2018-02-14T00:22:58.854Z,-3.44
2018-02-14T00:25:26.438Z,-3.39
2018-02-14T00:27:54.032Z,-3.46
2018-02-14T00:30:22.479Z,-3.54
2018-02-14T00:32:50.106Z,-3.52
2018-02-14T00:35:17.731Z,-3.58
2018-02-14T00:37:45.319Z,-3.59
2018-02-14T00:40:12.975Z,-3.59
2018-02-14T00:42:40.782Z,-3.59
2018-02-14T00:45:08.412Z,-3.63
2018-02-14T00:47:35.998Z,-3.65
2018-02-14T00:50:03.626Z,-3.62
2018-02-14T00:52:31.212Z,-3.57
2018-02-14T00:54:58.847Z,-3.54
2018-02-14T00:57:27.039Z,-3.58
2018-02-14T00:59:54.728Z,-3.67
2018-02-14T01:02:22.367Z,-3.69
2018-02-14T01:04:49.998Z,-3.69
2018-02-14T01:07:17.591Z,-3.73
2018-02-14T01:09:45.179Z,-3.71
2018-02-14T01:12:12.763Z,-3.71
2018-02-14T01:14:40.355Z,-3.66
2018-02-14T01:17:07.950Z,-3.66
2018-02-14T01:19:37.352Z,-3.61
2018-02-14T01:22:04.935Z,-3.65
2018-02-14T01:24:32.561Z,-3.65
2018-02-14T01:27:00.147Z,-3.71
2018-02-14T01:29:27.800Z,-3.68
2018-02-14T01:31:55.382Z,-3.69
2018-02-14T01:34:22.966Z,-3.71
2018-02-14T01:36:50.599Z,-3.71
2018-02-14T01:39:18.187Z,-3.69
2018-02-14T01:41:45.774Z,-3.67
2018-02-14T01:44:13.368Z,-3.71
2018-02-14T01:46:40.962Z,-3.72
2018-02-14T01:49:08.585Z,-3.65
2018-02-14T01:51:36.174Z,-3.66
2018-02-14T01:54:03.876Z,-3.69
2018-02-14T01:56:31.458Z,-3.73
2018-02-14T01:59:00.354Z,-3.73
2018-02-14T02:01:28.019Z,-3.76
2018-02-14T02:03:55.664Z,-3.76
2018-02-14T02:06:23.252Z,-3.76
2018-02-14T02:08:50.875Z,-3.76
2018-02-14T02:11:18.490Z,-3.77
2018-02-14T02:13:46.080Z,-3.65
2018-02-14T02:16:13.800Z,-3.73
2018-02-14T02:18:41.390Z,-3.84
2018-02-14T02:21:09.014Z,-3.90
2018-02-14T02:23:36.642Z,-3.91
2018-02-14T02:26:04.230Z,-3.91
2018-02-14T02:28:31.819Z,-3.95
2018-02-14T02:30:59.406Z,-3.97
2018-02-14T02:33:26.990Z,-3.97
2018-02-14T02:35:54.578Z,-3.99
2018-02-14T02:38:22.179Z,-3.97
2018-02-14T02:40:49.763Z,-3.91
2018-02-14T02:43:17.432Z,-3.94
2018-02-14T02:45:45.047Z,-3.88
2018-02-14T02:48:13.617Z,-3.78
2018-02-14T02:50:41.235Z,-3.75
2018-02-14T02:53:08.823Z,-4.00
2018-02-14T02:55:36.414Z,-4.07
2018-02-14T02:58:04.727Z,-4.03
2018-02-14T03:00:32.339Z,-4.07
2018-02-14T03:03:00.120Z,-4.06
2018-02-14T03:05:27.699Z,-4.03
2018-02-14T03:07:55.318Z,-4.09
2018-02-14T03:10:22.904Z,-4.09
2018-02-14T03:12:50.492Z,-4.16
2018-02-14T03:15:18.185Z,-4.28
2018-02-14T03:17:45.770Z,-4.34
2018-02-14T03:20:13.355Z,-4.31
2018-02-14T03:22:40.974Z,-4.38
2018-02-14T03:25:08.573Z,-4.32
2018-02-14T03:27:36.241Z,-4.32
2018-02-14T03:30:04.618Z,-4.21
2018-02-14T03:32:32.923Z,-4.31
2018-02-14T03:35:00.507Z,-4.27
2018-02-14T03:37:28.868Z,-4.31
2018-02-14T03:39:57.177Z,-4.36
2018-02-14T03:42:24.787Z,-4.28
2018-02-14T03:44:52.414Z,-4.34
2018-02-14T03:47:20.003Z,-4.35
2018-02-14T03:49:47.583Z,-4.35
2018-02-14T03:52:16.025Z,-4.39
2018-02-14T03:54:43.612Z,-4.37
2018-02-14T03:57:11.251Z,-4.42
2018-02-14T03:59:38.840Z,-4.39
2018-02-14T04:02:06.422Z,-4.38
2018-02-14T04:04:34.802Z,-4.31
2018-02-14T04:07:03.244Z,-4.35
2018-02-14T04:09:30.872Z,-4.39
2018-02-14T04:11:58.460Z,-4.44
2018-02-14T04:14:26.086Z,-4.50
2018-02-14T04:16:53.673Z,-4.51
2018-02-14T04:19:21.294Z,-4.57
2018-02-14T04:21:48.878Z,-4.64
2018-02-14T04:24:17.082Z,-4.65
2018-02-14T04:26:44.667Z,-4.68
2018-02-14T04:29:12.251Z,-4.70
2018-02-14T04:31:40.594Z,-4.64
2018-02-14T04:34:10.219Z,-4.70
2018-02-14T04:36:37.836Z,-4.71
2018-02-14T04:39:06.191Z,-4.72
2018-02-14T04:41:34.524Z,-4.75
2018-02-14T04:44:02.903Z,-4.72
2018-02-14T04:46:31.325Z,-4.81
2018-02-14T04:48:59.690Z,-4.84
2018-02-14T04:51:28.090Z,-4.86
2018-02-14T04:53:56.641Z,-4.88
2018-02-14T04:56:24.938Z,-4.84
2018-02-14T04:58:53.298Z,-4.79
2018-02-14T05:01:21.822Z,-4.80
2018-02-14T05:03:50.054Z,-4.83
2018-02-14T05:06:17.690Z,-4.90
2018-02-14T05:08:46.211Z,-4.96
2018-02-14T05:11:13.795Z,-4.94
2018-02-14T05:13:42.319Z,-4.84
2018-02-14T05:16:10.670Z,-4.84
2018-02-14T05:18:39.093Z,-4.85
2018-02-14T05:21:06.714Z,-4.85
2018-02-14T05:23:34.343Z,-4.87
2018-02-14T05:26:01.967Z,-4.85
2018-02-14T05:28:29.591Z,-4.91
2018-02-14T05:30:57.179Z,-4.87
2018-02-14T05:33:24.798Z,-4.85
2018-02-14T05:35:52.383Z,-4.91
2018-02-14T05:38:20.570Z,-5.09
2018-02-14T05:40:48.967Z,-5.05
2018-02-14T05:43:16.558Z,-5.06
2018-02-14T05:45:44.180Z,-5.04
2018-02-14T05:48:11.767Z,-4.95
2018-02-14T05:50:39.479Z,-4.96
2018-02-14T05:53:07.335Z,-4.98
2018-02-14T05:55:35.063Z,-5.01
2018-02-14T05:58:03.675Z,-5.07
2018-02-14T06:00:31.310Z,-5.04
2018-02-14T06:02:58.894Z,-5.12
2018-02-14T06:05:26.587Z,-5.16
2018-02-14T06:07:54.179Z,-5.15
2018-02-14T06:10:21.800Z,-5.19
2018-02-14T06:12:49.387Z,-5.18
2018-02-14T06:15:17.934Z,-5.15
2018-02-14T06:17:45.566Z,-5.03
2018-02-14T06:20:13.228Z,-5.12
2018-02-14T06:22:40.823Z,-5.06
2018-02-14T06:25:09.184Z,-5.03
2018-02-14T06:27:36.820Z,-4.99
2018-02-14T06:30:12.979Z,-5.01
2018-02-14T06:32:40.596Z,-5.04
2018-02-14T06:35:08.182Z,-5.06
2018-02-14T06:37:35.881Z,-5.08
2018-02-14T06:40:04.364Z,-5.05
2018-02-14T06:42:31.989Z,-5.04
2018-02-14T06:45:00.531Z,-5.00
2018-02-14T06:47:28.151Z,-4.98
2018-02-14T06:49:55.740Z,-4.90
2018-02-14T06:52:23.374Z,-4.81
2018-02-14T06:54:51.814Z,-4.79
2018-02-14T06:57:20.107Z,-4.78
2018-02-14T06:59:48.476Z,-4.77
2018-02-14T07:02:16.072Z,-4.74
2018-02-14T07:04:43.661Z,-4.67
2018-02-14T07:07:11.249Z,-4.62
2018-02-14T07:09:38.836Z,-4.57
2018-02-14T07:12:07.210Z,-4.59
2018-02-14T07:14:35.579Z,-4.57
2018-02-14T07:17:03.172Z,-4.46
2018-02-14T07:19:30.766Z,-4.42
2018-02-14T07:21:58.352Z,-4.32
2018-02-14T07:24:25.940Z,-4.26
2018-02-14T07:26:53.527Z,-4.17
2018-02-14T07:29:22.047Z,-4.11
2018-02-14T07:31:49.634Z,-4.08
2018-02-14T07:34:17.236Z,-3.96
2018-02-14T07:36:45.650Z,-3.80
2018-02-14T07:39:13.949Z,-3.81
2018-02-14T07:41:42.342Z,-3.69
2018-02-14T07:44:10.784Z,-3.51
2018-02-14T07:46:38.414Z,-3.51
2018-02-14T07:49:06.016Z,-3.49
2018-02-14T07:51:33.712Z,-3.43
2018-02-14T07:54:01.331Z,-3.25
2018-02-14T07:56:28.923Z,-3.17
2018-02-14T07:58:57.438Z,-3.13
2018-02-14T08:01:25.621Z,-3.00
2018-02-14T08:03:53.263Z,-2.93
2018-02-14T08:06:21.460Z,-2.71
2018-02-14T08:08:49.090Z,-2.69
2018-02-14T08:11:17.643Z,-2.64
2018-02-14T08:13:45.226Z,-2.61
2018-02-14T08:16:13.671Z,-2.55
2018-02-14T08:18:41.256Z,-2.44
2018-02-14T08:21:08.846Z,-2.33
2018-02-14T08:23:36.521Z,-2.23
2018-02-14T08:26:04.977Z,-2.23
2018-02-14T08:28:34.087Z,-2.11
2018-02-14T08:31:02.356Z,-2.03
2018-02-14T08:33:30.794Z,-1.97
2018-02-14T08:35:58.663Z,-1.81
2018-02-14T08:38:26.346Z,-1.62
2018-02-14T08:40:53.946Z,-1.42
2018-02-14T08:43:21.531Z,-1.34
2018-02-14T08:45:49.128Z,-1.39
2018-02-14T08:48:16.760Z,-1.16
2018-02-14T08:50:44.351Z,-1.21
2018-02-14T08:53:11.943Z,-1.11
2018-02-14T08:55:40.366Z,-0.96
2018-02-14T08:58:07.963Z,-0.87
2018-02-14T09:00:36.391Z,-0.76
2018-02-14T09:03:04.012Z,-0.64
2018-02-14T09:05:31.613Z,-0.55
2018-02-14T09:07:59.215Z,-0.25
2018-02-14T09:10:26.847Z,-0.25
2018-02-14T09:12:54.444Z,-0.22
2018-02-14T09:15:22.038Z,-0.19
2018-02-14T09:17:49.634Z,-0.08
2018-02-14T09:20:17.406Z,0.00
2018-02-14T09:22:44.989Z,0.00
2018-02-14T09:25:13.288Z,0.13
2018-02-14T09:27:40.899Z,0.29
2018-02-14T09:30:09.089Z,0.49
2018-02-14T09:32:36.674Z,0.69
2018-02-14T09:35:04.265Z,0.71
2018-02-14T09:37:31.925Z,0.82
2018-02-14T09:39:59.568Z,0.88
2018-02-14T09:42:27.929Z,0.98
2018-02-14T09:44:56.483Z,1.14
2018-02-14T09:47:24.059Z,1.22
2018-02-14T09:49:51.652Z,1.36
2018-02-14T09:52:19.264Z,1.46
2018-02-14T09:54:47.736Z,1.52
2018-02-14T09:57:15.313Z,1.72
2018-02-14T09:59:43.904Z,1.93
2018-02-14T10:02:11.485Z,1.97
2018-02-14T10:04:39.067Z,2.01
2018-02-14T10:07:06.790Z,2.12
2018-02-14T10:09:34.369Z,2.25
2018-02-14T10:12:02.008Z,2.38
2018-02-14T10:14:29.590Z,2.27
2018-02-14T10:16:57.167Z,2.17
2018-02-14T10:19:24.750Z,2.36
2018-02-14T10:21:52.385Z,2.27
2018-02-14T10:24:19.966Z,2.42
2018-02-14T10:26:47.551Z,2.47
2018-02-14T10:29:15.134Z,2.49
2018-02-14T10:31:42.718Z,2.49
2018-02-14T10:34:10.298Z,2.58
2018-02-14T10:36:37.869Z,2.68
2018-02-14T10:39:06.350Z,2.79
2018-02-14T10:41:33.931Z,2.70
2018-02-14T10:44:01.509Z,2.94
2018-02-14T10:46:29.096Z,2.90
2018-02-14T10:48:56.674Z,2.94
2018-02-14T10:51:24.259Z,3.01
2018-02-14T10:53:51.883Z,3.19
2018-02-14T10:56:19.463Z,3.31
2018-02-14T10:58:47.039Z,3.43
2018-02-14T11:01:20.050Z,3.62
2018-02-14T11:03:51.414Z,3.56
2018-02-14T11:06:18.990Z,3.60
2018-02-14T11:08:46.567Z,3.64
2018-02-14T11:11:14.151Z,3.80
2018-02-14T11:13:41.737Z,3.81
2018-02-14T11:16:09.348Z,3.90
2018-02-14T11:18:36.935Z,3.93
2018-02-14T11:21:04.510Z,3.84
2018-02-14T11:23:32.094Z,3.90
2018-02-14T11:25:59.677Z,3.90
2018-02-14T11:28:28.162Z,3.91
2018-02-14T11:30:55.739Z,3.93
2018-02-14T11:33:23.315Z,4.15
2018-02-14T11:35:50.891Z,4.18
2018-02-14T11:38:18.472Z,4.11
2018-02-14T11:40:46.055Z,4.22
2018-02-14T11:43:13.781Z,4.38
2018-02-14T11:45:41.394Z,4.35
2018-02-14T11:48:09.946Z,4.38
2018-02-14T11:50:38.372Z,4.44
2018-02-14T11:53:05.986Z,4.55
2018-02-14T11:55:33.565Z,4.55
2018-02-14T11:58:01.150Z,4.46
2018-02-14T12:00:28.816Z,4.48
2018-02-14T12:02:56.395Z,4.61
2018-02-14T12:05:24.006Z,4.80
2018-02-14T12:07:51.579Z,4.78
2018-02-14T12:10:19.246Z,4.86
2018-02-14T12:12:46.826Z,4.78
2018-02-14T12:15:14.406Z,4.91
2018-02-14T12:17:41.978Z,4.94
2018-02-14T12:20:09.558Z,4.88
2018-02-14T12:22:37.932Z,4.93
2018-02-14T12:25:05.516Z,5.23
2018-02-14T12:27:33.096Z,5.12
2018-02-14T12:30:01.592Z,5.39
2018-02-14T12:32:29.170Z,5.39
2018-02-14T12:34:56.743Z,5.53
2018-02-14T12:37:25.238Z,5.39
2018-02-14T12:39:52.823Z,5.46
2018-02-14T12:42:20.402Z,5.47
2018-02-14T12:44:47.983Z,5.62
2018-02-14T12:47:15.559Z,5.51
2018-02-14T12:49:43.291Z,5.88
2018-02-14T12:52:11.683Z,5.91
2018-02-14T12:54:39.270Z,5.88
2018-02-14T12:57:06.851Z,5.76
2018-02-14T12:59:35.382Z,6.07
2018-02-14T13:02:03.784Z,6.04
2018-02-14T13:04:32.282Z,6.27
2018-02-14T13:06:59.867Z,6.20
2018-02-14T13:09:27.452Z,5.85
2018-02-14T13:11:55.810Z,5.82
2018-02-14T13:14:24.446Z,6.01
2018-02-14T13:16:52.022Z,5.99
2018-02-14T13:19:20.384Z,6.08
2018-02-14T13:21:47.958Z,6.08
2018-02-14T13:24:16.365Z,6.24
2018-02-14T13:26:44.739Z,6.16
2018-02-14T13:29:13.247Z,6.13
2018-02-14T13:31:41.615Z,6.09
2018-02-14T13:34:09.270Z,5.89
2018-02-14T13:36:36.857Z,5.59
2018-02-14T13:39:04.443Z,5.65
2018-02-14T13:41:32.019Z,5.41
2018-02-14T13:43:59.647Z,5.40
2018-02-14T13:46:27.227Z,5.39
2018-02-14T13:48:54.801Z,5.23
2018-02-14T13:51:22.374Z,5.30
2018-02-14T13:53:49.957Z,5.25
2018-02-14T13:56:17.538Z,5.12
2018-02-14T13:58:45.119Z,5.03
2018-02-14T14:01:12.696Z,5.05
2018-02-14T14:03:40.273Z,4.95
2018-02-14T14:06:07.847Z,4.88
2018-02-14T14:08:35.432Z,4.84
2018-02-14T14:11:03.067Z,4.81
2018-02-14T14:13:30.624Z,4.88
2018-02-14T14:15:58.982Z,4.82
2018-02-14T14:18:26.558Z,4.88
2018-02-14T14:20:55.022Z,4.96
2018-02-14T14:23:22.643Z,4.81
2018-02-14T14:25:50.221Z,4.94
2018-02-14T14:28:17.801Z,4.95
2018-02-14T14:30:45.384Z,5.06
2018-02-14T14:33:12.990Z,5.10
2018-02-14T14:35:40.572Z,5.30
2018-02-14T14:38:08.167Z,5.45
2018-02-14T14:40:36.658Z,5.37
2018-02-14T14:43:04.311Z,5.28
2018-02-14T14:45:31.888Z,4.92
2018-02-14T14:47:59.466Z,4.96
2018-02-14T14:50:27.082Z,4.84
2018-02-14T14:52:54.658Z,4.78
2018-02-14T14:55:22.230Z,4.64
2018-02-14T14:57:49.843Z,4.70
2018-02-14T15:00:17.443Z,4.64
2018-02-14T15:02:45.026Z,4.33
2018-02-14T15:05:12.610Z,4.32
2018-02-14T15:07:40.191Z,4.23
2018-02-14T15:10:07.780Z,3.87
2018-02-14T15:12:35.396Z,3.87
2018-02-14T15:15:03.984Z,3.79
2018-02-14T15:17:31.618Z,3.66
2018-02-14T15:19:59.203Z,3.63
2018-02-14T15:22:26.778Z,3.60
2018-02-14T15:24:54.361Z,3.40
2018-02-14T15:27:21.996Z,3.39
2018-02-14T15:29:50.584Z,3.09
2018-02-14T15:32:18.162Z,2.95
2018-02-14T15:34:45.751Z,2.84
2018-02-14T15:37:13.331Z,2.79
2018-02-14T15:39:41.971Z,2.66
2018-02-14T15:42:09.554Z,2.54
2018-02-14T15:44:37.955Z,2.52
2018-02-14T15:47:05.536Z,2.34
2018-02-14T15:49:33.939Z,2.27
2018-02-14T15:52:01.522Z,2.16
2018-02-14T15:54:29.139Z,1.90
2018-02-14T15:56:56.725Z,1.84
2018-02-14T15:59:24.346Z,1.69
2018-02-14T16:01:52.733Z,1.55
2018-02-14T16:04:20.311Z,1.55
2018-02-14T16:06:47.900Z,1.33
2018-02-14T16:09:15.487Z,1.21
2018-02-14T16:11:43.062Z,1.18
2018-02-14T16:14:10.639Z,1.12
2018-02-14T16:16:39.303Z,1.11
2018-02-14T16:19:06.975Z,0.97
2018-02-14T16:21:34.563Z,0.90
2018-02-14T16:24:02.990Z,0.78
2018-02-14T16:26:31.355Z,0.64
2018-02-14T16:28:58.979Z,0.44
2018-02-14T16:31:27.250Z,0.39
2018-02-14T16:33:55.524Z,0.27
2018-02-14T16:36:23.791Z,0.27
2018-02-14T16:38:52.286Z,0.20
2018-02-14T16:41:20.559Z,0.10
2018-02-14T16:43:48.920Z,0.09
2018-02-14T16:46:17.296Z,-0.03
2018-02-14T16:48:45.679Z,0.04
2018-02-14T16:51:13.266Z,-0.05
2018-02-14T16:53:40.853Z,-0.05
2018-02-14T16:56:09.080Z,-0.16
2018-02-14T16:58:37.448Z,-0.15
2018-02-14T17:01:05.091Z,-0.18
2018-02-14T17:03:32.681Z,-0.15
2018-02-14T17:06:00.448Z,-0.26
2018-02-14T17:08:28.042Z,-0.25
2018-02-14T17:10:55.691Z,-0.23
2018-02-14T17:13:23.267Z,-0.26
2018-02-14T17:15:51.628Z,-0.32
2018-02-14T17:18:19.214Z,-0.40
2018-02-14T17:20:46.803Z,-0.35
2018-02-14T17:23:14.400Z,-0.58
2018-02-14T17:25:42.026Z,-0.69
2018-02-14T17:28:10.464Z,-0.62
2018-02-14T17:30:38.066Z,-0.72
2018-02-14T17:33:07.023Z,-0.63
2018-02-14T17:35:35.210Z,-0.82
2018-02-14T17:38:02.805Z,-0.89
2018-02-14T17:40:30.440Z,-0.93
2018-02-14T17:42:58.950Z,-0.94
2018-02-14T17:45:26.534Z,-0.97
2018-02-14T17:47:54.166Z,-1.07
2018-02-14T17:50:21.759Z,-1.13
2018-02-14T17:52:49.407Z,-1.21
2018-02-14T17:55:17.337Z,-1.21
2018-02-14T17:57:44.926Z,-1.30
2018-02-14T18:00:17.074Z,-1.31
2018-02-14T18:02:44.762Z,-1.38
2018-02-14T18:05:12.413Z,-1.37
2018-02-14T18:07:40.045Z,-1.41
2018-02-14T18:10:07.634Z,-1.46
2018-02-14T18:12:35.299Z,-1.49
2018-02-14T18:15:02.887Z,-1.54
2018-02-14T18:17:31.300Z,-1.56
2018-02-14T18:19:58.882Z,-1.53
2018-02-14T18:22:26.479Z,-1.61
2018-02-14T18:24:54.112Z,-1.59
2018-02-14T18:27:21.703Z,-1.62
2018-02-14T18:29:50.542Z,-1.54
2018-02-14T18:32:18.129Z,-1.67
2018-02-14T18:34:45.719Z,-1.68
2018-02-14T18:37:13.379Z,-1.68
2018-02-14T18:39:40.983Z,-1.67
2018-02-14T18:42:08.626Z,-1.74
2018-02-14T18:44:36.232Z,-1.63
2018-02-14T18:47:03.822Z,-1.64
2018-02-14T18:49:34.263Z,-1.53
2018-02-14T18:52:02.446Z,-1.59
2018-02-14T18:54:30.043Z,-1.61
2018-02-14T18:56:57.665Z,-1.59
2018-02-14T18:59:25.283Z,-1.51
2018-02-14T19:01:52.865Z,-1.46
2018-02-14T19:04:20.521Z,-1.34
2018-02-14T19:06:48.116Z,-1.37
2018-02-14T19:09:15.710Z,-1.35
2018-02-14T19:11:45.487Z,-1.30
2018-02-14T19:14:16.771Z,-1.32
2018-02-14T19:16:44.414Z,-1.35
2018-02-14T19:19:12.835Z,-1.34
2018-02-14T19:21:40.430Z,-1.31
2018-02-14T19:24:08.070Z,-1.35
2018-02-14T19:26:35.667Z,-1.39
2018-02-14T19:29:03.301Z,-1.34
2018-02-14T19:31:30.959Z,-1.25
2018-02-14T19:33:58.593Z,-1.27
2018-02-14T19:36:26.186Z,-1.20
2018-02-14T19:38:53.779Z,-1.22
2018-02-14T19:41:21.411Z,-1.28
2018-02-14T19:43:49.936Z,-1.48
2018-02-14T19:46:17.602Z,-1.42
2018-02-14T19:48:45.242Z,-1.33
2018-02-14T19:51:12.840Z,-1.38
2018-02-14T19:53:40.438Z,-1.25
2018-02-14T19:56:08.164Z,-1.28
2018-02-14T19:58:35.858Z,-1.29
2018-02-14T20:01:04.460Z,-1.17
2018-02-14T20:03:32.050Z,-1.21
2018-02-14T20:05:59.684Z,-1.23
2018-02-14T20:08:27.280Z,-1.23
2018-02-14T20:10:54.903Z,-1.20
2018-02-14T20:13:22.518Z,-1.23
2018-02-14T20:15:50.735Z,-1.33
2018-02-14T20:18:18.335Z,-1.40
2018-02-14T20:20:46.633Z,-1.40
2018-02-14T20:23:15.091Z,-1.48
2018-02-14T20:25:43.456Z,-1.55
2018-02-14T20:28:11.819Z,-1.42
2018-02-14T20:30:40.191Z,-1.45
2018-02-14T20:33:07.936Z,-1.48
2018-02-14T20:35:35.584Z,-1.50
2018-02-14T20:38:03.390Z,-1.50
2018-02-14T20:40:30.986Z,-1.46
2018-02-14T20:42:58.894Z,-1.53
2018-02-14T20:45:27.324Z,-1.45
2018-02-14T20:47:54.962Z,-1.57
2018-02-14T20:50:22.554Z,-1.41
2018-02-14T20:52:50.177Z,-1.36
2018-02-14T20:55:17.774Z,-1.43
2018-02-14T20:57:45.374Z,-1.39
2018-02-14T21:00:13.329Z,-1.35
2018-02-14T21:02:40.922Z,-1.53
2018-02-14T21:05:08.510Z,-1.50
2018-02-14T21:07:36.103Z,-1.54
2018-02-14T21:10:03.751Z,-1.45
2018-02-14T21:12:31.344Z,-1.29
2018-02-14T21:14:58.941Z,-1.37
2018-02-14T21:17:26.574Z,-1.32
2018-02-14T21:19:54.171Z,-1.25
2018-02-14T21:22:21.761Z,-1.40
2018-02-14T21:24:50.175Z,-1.36
2018-02-14T21:27:18.569Z,-1.28
2018-02-14T21:29:46.206Z,-1.37
2018-02-14T21:32:13.803Z,-1.38
2018-02-14T21:34:42.250Z,-1.47
2018-02-14T21:37:10.633Z,-1.42
2018-02-14T21:39:38.226Z,-1.29
2018-02-14T21:42:06.855Z,-1.31
2018-02-14T21:44:34.449Z,-1.24
2018-02-14T21:47:02.048Z,-1.30
2018-02-14T21:49:30.444Z,-1.35
2018-02-14T21:51:58.678Z,-1.30
2018-02-14T21:54:27.054Z,-1.40
2018-02-14T21:56:55.427Z,-1.38
2018-02-14T21:59:23.857Z,-1.43
2018-02-14T22:01:51.443Z,-1.39
2018-02-14T22:04:19.044Z,-1.35
2018-02-14T22:06:46.642Z,-1.33
2018-02-14T22:09:14.234Z,-1.38
2018-02-14T22:11:41.848Z,-1.33
2018-02-14T22:14:10.466Z,-1.34
2018-02-14T22:16:38.055Z,-1.25
2018-02-14T22:19:05.683Z,-1.40
2018-02-14T22:21:33.276Z,-1.30
2018-02-14T22:24:00.907Z,-1.31
2018-02-14T22:26:28.556Z,-1.26
2018-02-14T22:28:57.633Z,-1.29
2018-02-14T22:31:25.231Z,-1.28
2018-02-14T22:33:52.821Z,-1.24
2018-02-14T22:36:20.442Z,-1.37
2018-02-14T22:38:48.958Z,-1.40
2018-02-14T22:41:17.500Z,-1.36
2018-02-14T22:43:45.806Z,-1.43
2018-02-14T22:46:13.435Z,-1.57
2018-02-14T22:48:41.855Z,-1.56
2018-02-14T22:51:09.505Z,-1.50
2018-02-14T22:53:37.166Z,-1.43
2018-02-14T22:56:04.787Z,-1.56
2018-02-14T22:58:32.420Z,-1.42
2018-02-14T23:01:00.017Z,-1.44
2018-02-14T23:03:28.495Z,-1.50
2018-02-14T23:05:56.906Z,-1.48
2018-02-14T23:08:25.395Z,-1.44
2018-02-14T23:10:53.061Z,-1.50
2018-02-14T23:13:20.656Z,-1.42
2018-02-14T23:15:48.307Z,-1.50
2018-02-14T23:18:15.931Z,-1.54
2018-02-14T23:20:44.457Z,-1.38
2018-02-14T23:23:12.847Z,-1.43
2018-02-14T23:25:41.267Z,-1.38
2018-02-14T23:28:09.759Z,-1.41
2018-02-14T23:30:37.470Z,-1.48
2018-02-14T23:33:05.058Z,-1.53
2018-02-14T23:35:33.531Z,-1.50
2018-02-14T23:38:02.019Z,-1.47
2018-02-14T23:40:30.431Z,-1.39
2018-02-14T23:42:58.031Z,-1.41
2018-02-14T23:45:25.680Z,-1.42
2018-02-14T23:47:54.198Z,-1.49
2018-02-14T23:50:21.792Z,-1.47
2018-02-14T23:52:49.987Z,-1.51
2018-02-14T23:55:17.621Z,-1.40
2018-02-14T23:57:46.047Z,-1.36
